createdAt,value
2018-03-07T00:00:38.641Z,127.97
2018-03-07T00:03:06.324Z,129.68
2018-03-07T00:05:33.942Z,135.60
2018-03-07T00:08:01.487Z,132.48
2018-03-07T00:10:29.034Z,128.52
2018-03-07T00:12:57.336Z,119.13
2018-03-07T00:15:24.914Z,126.47
2018-03-07T00:17:52.469Z,115.55
2018-03-07T00:20:19.992Z,116.12
2018-03-07T00:22:48.285Z,124.68
2018-03-07T00:25:15.820Z,117.57
2018-03-07T00:27:43.371Z,123.20
2018-03-07T00:30:10.904Z,118.47
2018-03-07T00:32:38.457Z,119.13
2018-03-07T00:35:05.984Z,135.07
2018-03-07T00:37:33.560Z,117.70
2018-03-07T00:40:01.092Z,122.25
2018-03-07T00:42:29.416Z,122.55
2018-03-07T00:44:56.936Z,117.80
2018-03-07T00:47:24.474Z,126.05
2018-03-07T00:49:52.772Z,132.68
2018-03-07T00:52:21.077Z,124.93
2018-03-07T00:54:48.650Z,118.47
2018-03-07T00:57:16.190Z,126.60
2018-03-07T00:59:44.585Z,126.03
2018-03-07T01:02:12.164Z,128.87
2018-03-07T01:04:39.810Z,124.22
2018-03-07T01:07:07.369Z,129.52
2018-03-07T01:09:34.894Z,117.90
2018-03-07T01:12:03.204Z,141.68
2018-03-07T01:14:30.767Z,118.80
2018-03-07T01:16:58.298Z,125.85
2018-03-07T01:19:26.590Z,117.28
2018-03-07T01:21:54.130Z,129.57
2018-03-07T01:24:21.717Z,125.65
2018-03-07T01:26:49.255Z,125.90
2018-03-07T01:29:17.548Z,127.50
2018-03-07T01:31:45.130Z,116.57
2018-03-07T01:34:12.673Z,128.20
2018-03-07T01:36:40.221Z,119.30
2018-03-07T01:39:08.004Z,127.90
2018-03-07T01:41:35.557Z,130.20
2018-03-07T01:44:03.164Z,122.35
2018-03-07T01:46:30.797Z,120.82
2018-03-07T01:48:58.341Z,126.32
2018-03-07T01:51:37.898Z,140.40
2018-03-07T01:54:05.458Z,117.72
2018-03-07T01:56:33.023Z,121.20
2018-03-07T01:59:00.557Z,128.23
2018-03-07T02:01:28.108Z,116.03
2018-03-07T02:03:56.388Z,124.50
2018-03-07T02:06:24.699Z,115.45
2018-03-07T02:08:52.247Z,139.90
2018-03-07T02:11:19.813Z,127.43
2018-03-07T02:13:47.392Z,123.57
2018-03-07T02:16:14.965Z,113.80
2018-03-07T02:18:42.600Z,118.95
2018-03-07T02:21:10.128Z,117.65
2018-03-07T02:23:38.420Z,126.62
2018-03-07T02:26:06.010Z,119.37
2018-03-07T02:28:33.558Z,122.53
2018-03-07T02:31:01.084Z,128.70
2018-03-07T02:33:29.505Z,117.28
2018-03-07T02:35:57.070Z,117.72
2018-03-07T02:38:24.719Z,117.40
2018-03-07T02:40:52.274Z,117.78
2018-03-07T02:43:19.829Z,124.45
2018-03-07T02:45:47.361Z,125.18
2018-03-07T02:48:15.678Z,130.68
2018-03-07T02:50:43.193Z,132.25
2018-03-07T02:53:11.528Z,136.80
2018-03-07T02:55:39.079Z,117.82
2018-03-07T02:58:06.633Z,121.07
2018-03-07T03:00:34.178Z,113.20
2018-03-07T03:03:01.769Z,109.87
2018-03-07T03:05:29.302Z,130.93
2018-03-07T03:07:56.872Z,124.50
2018-03-07T03:10:24.424Z,140.17
2018-03-07T03:12:51.970Z,127.80
2018-03-07T03:15:20.296Z,126.80
2018-03-07T03:17:48.164Z,115.57
2018-03-07T03:20:15.690Z,125.65
2018-03-07T03:22:44.086Z,133.70
2018-03-07T03:25:11.612Z,139.05
2018-03-07T03:27:39.943Z,132.68
2018-03-07T03:30:07.473Z,117.47
2018-03-07T03:32:35.156Z,126.53
2018-03-07T03:35:02.718Z,117.15
2018-03-07T03:37:30.352Z,130.45
2018-03-07T03:39:58.756Z,132.12
2018-03-07T03:42:26.346Z,143.27
2018-03-07T03:44:53.910Z,128.32
2018-03-07T03:47:21.537Z,127.70
2018-03-07T03:49:49.098Z,121.95
2018-03-07T03:52:16.629Z,121.95
2018-03-07T03:54:44.944Z,116.53
2018-03-07T03:57:33.102Z,122.60
2018-03-07T04:00:00.629Z,123.35
2018-03-07T04:02:28.207Z,121.95
2018-03-07T04:04:55.808Z,117.47
2018-03-07T04:07:23.379Z,112.28
2018-03-07T04:09:50.904Z,128.82
2018-03-07T04:12:18.433Z,125.47
2018-03-07T04:14:46.014Z,134.25
2018-03-07T04:17:13.540Z,129.82
2018-03-07T04:19:41.847Z,113.28
2018-03-07T04:22:09.378Z,112.68
2018-03-07T04:24:37.685Z,117.45
2018-03-07T04:27:05.208Z,120.82
2018-03-07T04:29:33.497Z,119.45
2018-03-07T04:32:01.798Z,125.50
2018-03-07T04:34:29.338Z,130.68
2018-03-07T04:36:56.929Z,117.20
2018-03-07T04:39:24.589Z,143.98
2018-03-07T04:41:52.140Z,135.45
2018-03-07T04:44:19.702Z,116.37
2018-03-07T04:46:47.267Z,130.63
2018-03-07T04:49:14.925Z,121.62
2018-03-07T04:51:42.493Z,128.02
2018-03-07T04:54:10.051Z,118.68
2018-03-07T04:56:37.582Z,119.17
2018-03-07T04:59:05.890Z,136.90
2018-03-07T05:01:33.417Z,135.12
2018-03-07T05:04:01.718Z,149.07
2018-03-07T05:06:29.290Z,127.20
2018-03-07T05:08:56.828Z,115.50
2018-03-07T05:11:24.372Z,119.18
2018-03-07T05:13:51.976Z,122.80
2018-03-07T05:16:20.599Z,127.78
2018-03-07T05:18:48.228Z,109.50
2018-03-07T05:21:15.928Z,112.95
2018-03-07T05:23:43.462Z,137.57
2018-03-07T05:26:11.103Z,125.85
2018-03-07T05:28:38.674Z,116.88
2018-03-07T05:31:06.219Z,114.20
2018-03-07T05:33:33.757Z,120.80
2018-03-07T05:36:02.574Z,115.05
2018-03-07T05:38:30.929Z,114.53
2018-03-07T05:40:59.245Z,126.97
2018-03-07T05:43:26.767Z,134.65
2018-03-07T05:45:55.086Z,126.70
2018-03-07T05:48:22.630Z,120.80
2018-03-07T05:50:50.178Z,126.72
2018-03-07T05:53:17.710Z,131.10
2018-03-07T05:55:46.001Z,127.25
2018-03-07T05:58:14.314Z,126.20
2018-03-07T06:00:41.868Z,137.00
2018-03-07T06:03:09.417Z,123.95
2018-03-07T06:05:36.952Z,135.30
2018-03-07T06:08:05.267Z,121.62
2018-03-07T06:10:32.825Z,123.72
2018-03-07T06:13:00.360Z,126.05
2018-03-07T06:15:28.666Z,137.37
2018-03-07T06:17:56.194Z,127.95
2018-03-07T06:20:24.496Z,136.65
2018-03-07T06:22:52.026Z,132.45
2018-03-07T06:25:20.316Z,132.73
2018-03-07T06:27:48.603Z,112.53
2018-03-07T06:30:16.151Z,138.37
2018-03-07T06:32:44.465Z,131.65
2018-03-07T06:35:12.004Z,115.28
2018-03-07T06:37:39.536Z,131.32
2018-03-07T06:40:07.825Z,125.72
2018-03-07T06:42:36.132Z,113.68
2018-03-07T06:45:03.674Z,122.13
2018-03-07T06:47:31.232Z,126.18
2018-03-07T06:49:58.837Z,125.62
2018-03-07T06:52:26.415Z,129.23
2018-03-07T06:54:55.454Z,132.37
2018-03-07T06:57:22.990Z,125.50
2018-03-07T06:59:51.296Z,126.75
2018-03-07T07:02:18.872Z,126.65
2018-03-07T07:04:46.402Z,122.30
2018-03-07T07:07:15.019Z,128.07
2018-03-07T07:09:42.574Z,137.43
2018-03-07T07:12:10.116Z,139.57
2018-03-07T07:14:37.677Z,147.77
2018-03-07T07:17:05.230Z,133.12
2018-03-07T07:19:33.510Z,127.10
2018-03-07T07:22:01.249Z,126.68
2018-03-07T07:24:28.773Z,126.12
2018-03-07T07:26:57.052Z,119.70
2018-03-07T07:29:25.452Z,123.82
2018-03-07T07:31:53.130Z,118.40
2018-03-07T07:34:20.749Z,114.32
2018-03-07T07:36:48.312Z,126.12
2018-03-07T07:39:15.886Z,121.63
2018-03-07T07:41:43.527Z,122.35
2018-03-07T07:44:11.072Z,110.22
2018-03-07T07:46:38.601Z,113.88
2018-03-07T07:49:06.913Z,145.95
2018-03-07T07:51:34.481Z,120.25
2018-03-07T07:54:02.058Z,120.33
2018-03-07T07:56:29.618Z,114.07
2018-03-07T07:58:57.272Z,123.63
2018-03-07T08:01:24.809Z,111.95
2018-03-07T08:03:52.363Z,114.35
2018-03-07T08:06:20.768Z,110.88
2018-03-07T08:08:48.321Z,118.97
2018-03-07T08:11:15.843Z,118.53
2018-03-07T08:13:44.266Z,111.57
2018-03-07T08:16:11.831Z,128.20
2018-03-07T08:18:39.414Z,121.03
2018-03-07T08:21:06.945Z,103.33
2018-03-07T08:23:34.482Z,112.20
2018-03-07T08:26:02.900Z,112.07
2018-03-07T08:28:30.432Z,120.23
2018-03-07T08:30:58.750Z,117.57
2018-03-07T08:33:26.293Z,121.27
2018-03-07T08:35:53.832Z,127.83
2018-03-07T08:38:21.368Z,127.73
2018-03-07T08:40:49.684Z,119.73
2018-03-07T08:43:17.211Z,134.77
2018-03-07T08:45:45.544Z,120.13
2018-03-07T08:48:13.079Z,115.93
2018-03-07T08:50:40.658Z,119.33
2018-03-07T08:53:08.191Z,119.67
2018-03-07T08:55:35.744Z,112.35
2018-03-07T08:58:04.055Z,119.20
2018-03-07T09:00:31.621Z,122.17
2018-03-07T09:02:59.157Z,117.57
2018-03-07T09:05:26.701Z,111.33
2018-03-07T09:07:55.338Z,109.53
2018-03-07T09:10:22.981Z,120.50
2018-03-07T09:12:50.541Z,121.10
2018-03-07T09:15:18.108Z,122.23
2018-03-07T09:17:45.647Z,113.33
2018-03-07T09:20:13.200Z,111.63
2018-03-07T09:22:41.498Z,119.22
2018-03-07T09:25:09.065Z,126.90
2018-03-07T09:27:36.645Z,110.97
2018-03-07T09:30:04.174Z,109.43
2018-03-07T09:32:31.740Z,111.47
2018-03-07T09:34:59.453Z,109.93
2018-03-07T09:37:27.898Z,103.77
2018-03-07T09:39:55.487Z,110.17
2018-03-07T09:42:23.043Z,113.97
2018-03-07T09:44:50.591Z,98.73
2018-03-07T09:47:18.282Z,108.87
2018-03-07T09:49:46.591Z,106.97
2018-03-07T09:52:14.123Z,92.23
2018-03-07T09:54:41.720Z,103.93
2018-03-07T09:57:09.450Z,99.17
2018-03-07T09:59:37.780Z,102.80
2018-03-07T10:02:05.395Z,101.00
2018-03-07T10:04:32.899Z,100.27
2018-03-07T10:07:00.560Z,95.20
2018-03-07T10:09:28.635Z,102.80
2018-03-07T10:11:56.729Z,100.28
2018-03-07T10:14:24.265Z,90.30
2018-03-07T10:16:52.006Z,105.63
2018-03-07T10:19:20.343Z,96.63
2018-03-07T10:21:47.976Z,101.00
2018-03-07T10:24:15.529Z,106.03
2018-03-07T10:26:43.169Z,97.67
2018-03-07T10:29:10.814Z,93.53
2018-03-07T10:31:38.355Z,97.57
2018-03-07T10:34:05.909Z,97.33
2018-03-07T10:36:33.550Z,103.30
2018-03-07T10:39:01.314Z,120.10
2018-03-07T10:41:28.836Z,103.33
2018-03-07T10:43:57.128Z,101.53
2018-03-07T10:46:24.664Z,99.25
2018-03-07T10:48:52.275Z,109.30
2018-03-07T10:51:19.938Z,112.60
2018-03-07T10:53:47.486Z,113.43
2018-03-07T10:56:15.061Z,113.23
2018-03-07T10:58:42.592Z,114.37
2018-03-07T11:01:10.891Z,112.90
2018-03-07T11:03:38.782Z,105.93
2018-03-07T11:06:07.841Z,112.60
2018-03-07T11:08:35.354Z,111.60
2018-03-07T11:11:03.113Z,109.30
2018-03-07T11:13:30.949Z,111.97
2018-03-07T11:15:58.516Z,104.90
2018-03-07T11:18:26.060Z,114.07
2018-03-07T11:20:53.734Z,124.20
2018-03-07T11:23:21.282Z,113.70
2018-03-07T11:25:48.858Z,104.13
2018-03-07T11:28:16.412Z,99.83
2018-03-07T11:30:44.082Z,111.73
2018-03-07T11:33:11.848Z,109.97
2018-03-07T11:35:39.418Z,105.73
2018-03-07T11:38:07.039Z,124.23
2018-03-07T11:40:35.513Z,114.37
2018-03-07T11:43:04.287Z,114.80
2018-03-07T11:45:33.262Z,109.47
2018-03-07T11:48:00.894Z,105.63
2018-03-07T11:50:28.814Z,103.50
2018-03-07T11:52:57.703Z,112.53
2018-03-07T11:55:26.032Z,109.03
2018-03-07T11:57:53.561Z,105.97
2018-03-07T12:00:21.860Z,99.03
2018-03-07T12:02:49.438Z,97.60
2018-03-07T12:05:16.977Z,101.40
2018-03-07T12:07:44.544Z,107.47
2018-03-07T12:10:12.092Z,99.47
2018-03-07T12:12:39.675Z,101.83
2018-03-07T12:15:07.214Z,102.80
2018-03-07T12:17:34.754Z,104.00
2018-03-07T12:20:03.132Z,97.00
2018-03-07T12:22:37.603Z,93.87
2018-03-07T12:25:05.256Z,93.40
2018-03-07T12:27:32.980Z,96.75
2018-03-07T12:30:00.530Z,105.30
2018-03-07T12:32:28.057Z,85.00
2018-03-07T12:34:56.200Z,84.97
2018-03-07T12:37:24.360Z,83.97
2018-03-07T12:39:52.872Z,91.80
2018-03-07T12:42:20.644Z,87.10
2018-03-07T12:44:48.418Z,93.87
2018-03-07T12:47:16.077Z,86.53
2018-03-07T12:49:44.090Z,82.70
2018-03-07T12:52:11.658Z,87.47
2018-03-07T12:54:40.097Z,97.53
2018-03-07T12:57:07.639Z,82.63
2018-03-07T12:59:35.168Z,85.47
2018-03-07T13:02:03.636Z,83.77
2018-03-07T13:04:32.185Z,83.00
2018-03-07T13:07:00.124Z,78.43
2018-03-07T13:09:28.039Z,89.75
2018-03-07T13:11:55.612Z,85.20
2018-03-07T13:14:23.231Z,77.77
2018-03-07T13:16:51.513Z,77.60
2018-03-07T13:19:19.842Z,79.10
2018-03-07T13:21:48.150Z,81.37
2018-03-07T13:24:15.677Z,83.83
2018-03-07T13:26:43.218Z,76.83
2018-03-07T13:29:10.956Z,89.30
2018-03-07T13:31:38.526Z,81.53
2018-03-07T13:34:06.092Z,76.03
2018-03-07T13:36:33.944Z,78.70
2018-03-07T13:39:02.438Z,81.37
2018-03-07T13:41:30.779Z,84.17
2018-03-07T13:43:59.069Z,93.50
2018-03-07T13:46:26.953Z,94.85
2018-03-07T13:48:54.484Z,100.00
2018-03-07T13:51:22.810Z,101.40
2018-03-07T13:53:50.503Z,102.45
2018-03-07T13:56:18.881Z,92.63
2018-03-07T13:58:46.359Z,85.07
2018-03-07T14:01:14.774Z,81.30
2018-03-07T14:03:42.397Z,82.67
2018-03-07T14:06:10.687Z,86.50
2018-03-07T14:08:38.994Z,83.43
2018-03-07T14:11:06.581Z,87.93
2018-03-07T14:13:34.124Z,86.53
2018-03-07T14:16:01.657Z,86.90
2018-03-07T14:18:29.193Z,87.03
2018-03-07T14:20:57.494Z,109.85
2018-03-07T14:23:25.037Z,113.53
2018-03-07T14:25:53.361Z,116.03
2018-03-07T14:28:20.913Z,119.23
2018-03-07T14:30:48.440Z,119.87
2018-03-07T14:33:16.852Z,128.03
2018-03-07T14:35:44.436Z,131.68
2018-03-07T14:38:11.957Z,123.17
2018-03-07T14:40:39.480Z,115.63
2018-03-07T14:43:07.093Z,127.93
2018-03-07T14:45:34.615Z,132.30
2018-03-07T14:48:02.958Z,117.73
2018-03-07T14:50:30.490Z,127.03
2018-03-07T14:52:58.020Z,108.80
2018-03-07T14:55:25.621Z,123.90
2018-03-07T14:57:53.177Z,119.93
2018-03-07T15:00:20.740Z,125.80
2018-03-07T15:02:48.313Z,123.37
2018-03-07T15:05:15.857Z,116.63
2018-03-07T15:07:43.421Z,127.23
2018-03-07T15:10:10.952Z,125.63
2018-03-07T15:12:39.245Z,114.43
2018-03-07T15:15:06.817Z,129.43
2018-03-07T15:17:34.340Z,129.32
2018-03-07T15:20:02.760Z,130.87
2018-03-07T15:22:30.334Z,127.57
2018-03-07T15:24:57.872Z,121.90
2018-03-07T15:27:25.428Z,120.03
2018-03-07T15:29:52.997Z,125.97
2018-03-07T15:32:20.527Z,124.80
2018-03-07T15:34:48.810Z,125.23
2018-03-07T15:37:17.225Z,124.13
2018-03-07T15:39:44.788Z,117.33
2018-03-07T15:42:12.338Z,112.10
2018-03-07T15:44:39.881Z,114.68
2018-03-07T15:47:08.178Z,115.70
2018-03-07T15:49:35.815Z,114.63
2018-03-07T15:52:04.120Z,121.30
2018-03-07T15:54:31.769Z,108.10
2018-03-07T15:56:59.352Z,114.25
2018-03-07T15:59:27.055Z,105.20
2018-03-07T16:01:54.602Z,112.67
2018-03-07T16:04:22.130Z,112.00
2018-03-07T16:06:49.691Z,107.13
2018-03-07T16:09:17.218Z,98.20
2018-03-07T16:11:45.758Z,109.50
2018-03-07T16:14:13.307Z,115.62
2018-03-07T16:16:40.836Z,118.93
2018-03-07T16:19:08.378Z,109.67
2018-03-07T16:21:36.797Z,116.03
2018-03-07T16:24:04.458Z,111.93
2018-03-07T16:26:31.986Z,108.40
2018-03-07T16:29:00.535Z,116.83
2018-03-07T16:31:28.698Z,116.90
2018-03-07T16:33:57.302Z,114.60
2018-03-07T16:36:25.330Z,125.53
2018-03-07T16:38:53.234Z,111.50
2018-03-07T16:41:21.027Z,112.60
2018-03-07T16:43:50.202Z,114.27
2018-03-07T16:46:18.144Z,126.80
2018-03-07T16:48:46.181Z,114.03
2018-03-07T16:51:15.137Z,114.83
2018-03-07T16:53:43.880Z,120.93
2018-03-07T16:56:13.016Z,126.20
2018-03-07T16:58:41.506Z,116.00
2018-03-07T17:01:09.394Z,124.63
2018-03-07T17:03:37.781Z,129.40
2018-03-07T17:06:05.670Z,129.97
2018-03-07T17:08:33.661Z,134.63
2018-03-07T17:11:01.675Z,132.10
2018-03-07T17:13:30.368Z,130.93
2018-03-07T17:15:58.928Z,119.70
2018-03-07T17:18:28.416Z,119.43
2018-03-07T17:20:56.718Z,137.27
2018-03-07T17:23:24.966Z,127.23
2018-03-07T17:25:52.507Z,128.97
2018-03-07T17:28:20.065Z,121.00
2018-03-07T17:30:47.597Z,121.90
2018-03-07T17:33:15.118Z,138.03
2018-03-07T17:35:42.654Z,135.23
2018-03-07T17:38:10.179Z,132.25
2018-03-07T17:40:37.817Z,134.70
2018-03-07T17:43:05.449Z,126.53
2018-03-07T17:45:33.000Z,147.57
2018-03-07T17:48:00.565Z,134.73
2018-03-07T17:50:28.109Z,126.18
2018-03-07T17:52:55.699Z,125.60
2018-03-07T17:55:23.259Z,116.23
2018-03-07T17:57:50.803Z,130.57
2018-03-07T18:00:18.406Z,140.43
2018-03-07T18:02:45.950Z,127.73
2018-03-07T18:05:13.480Z,124.70
2018-03-07T18:07:41.055Z,139.37
2018-03-07T18:10:08.589Z,140.82
2018-03-07T18:12:37.335Z,121.20
2018-03-07T18:15:05.514Z,131.67
2018-03-07T18:17:34.488Z,135.00
2018-03-07T18:20:02.668Z,151.75
2018-03-07T18:22:31.128Z,132.15
2018-03-07T18:24:58.662Z,138.47
2018-03-07T18:27:26.332Z,129.93
2018-03-07T18:29:54.129Z,131.75
2018-03-07T18:32:22.022Z,135.40
2018-03-07T18:34:49.973Z,158.40
2018-03-07T18:37:17.517Z,139.97
2018-03-07T18:39:45.046Z,138.43
2018-03-07T18:42:13.334Z,147.70
2018-03-07T18:44:40.870Z,134.70
2018-03-07T18:47:08.394Z,129.33
2018-03-07T18:49:35.944Z,133.87
2018-03-07T18:52:03.742Z,137.10
2018-03-07T18:54:32.758Z,147.95
2018-03-07T18:57:00.906Z,141.60
2018-03-07T18:59:29.165Z,144.75
2018-03-07T19:01:57.129Z,155.00
2018-03-07T19:04:24.821Z,140.90
2018-03-07T19:06:52.860Z,137.93
2018-03-07T19:09:20.417Z,138.03
2018-03-07T19:11:47.978Z,126.27
2018-03-07T19:14:15.512Z,140.02
2018-03-07T19:16:43.506Z,132.12
2018-03-07T19:19:12.329Z,130.37
2018-03-07T19:21:40.533Z,130.95
2018-03-07T19:24:08.886Z,126.35
2018-03-07T19:26:36.522Z,139.90
2018-03-07T19:29:04.076Z,133.07
2018-03-07T19:31:31.613Z,132.57
2018-03-07T19:33:59.173Z,132.25
2018-03-07T19:36:27.565Z,139.50
2018-03-07T19:38:55.109Z,165.45
2018-03-07T19:41:23.419Z,154.23
2018-03-07T19:43:50.944Z,132.07
2018-03-07T19:46:18.535Z,161.75
2018-03-07T19:48:46.070Z,156.05
2018-03-07T19:51:14.366Z,162.87
2018-03-07T19:53:42.042Z,154.45
2018-03-07T19:56:09.594Z,145.17
2018-03-07T19:58:37.164Z,147.37
2018-03-07T20:01:05.034Z,134.95
2018-03-07T20:03:32.571Z,154.10
2018-03-07T20:06:00.096Z,153.55
2018-03-07T20:08:27.682Z,155.43
2018-03-07T20:10:55.249Z,132.40
2018-03-07T20:13:22.793Z,142.67
2018-03-07T20:15:51.518Z,151.80
2018-03-07T20:18:19.063Z,129.63
2018-03-07T20:20:46.637Z,152.40
2018-03-07T20:23:14.184Z,140.77
2018-03-07T20:25:41.741Z,120.78
2018-03-07T20:28:09.261Z,135.15
2018-03-07T20:30:36.776Z,138.10
2018-03-07T20:33:04.353Z,134.80
2018-03-07T20:35:31.889Z,147.60
2018-03-07T20:37:59.455Z,150.23
2018-03-07T20:40:27.035Z,148.20
2018-03-07T20:42:54.578Z,143.82
2018-03-07T20:45:22.137Z,134.67
2018-03-07T20:47:49.705Z,147.45
2018-03-07T20:50:17.241Z,138.67
2018-03-07T20:52:45.979Z,142.27
2018-03-07T20:55:13.643Z,142.37
2018-03-07T20:57:41.379Z,141.93
2018-03-07T21:00:08.942Z,144.47
2018-03-07T21:02:36.474Z,133.80
2018-03-07T21:05:04.024Z,134.23
2018-03-07T21:07:32.318Z,132.43
2018-03-07T21:09:59.902Z,146.30
2018-03-07T21:12:27.461Z,145.70
2018-03-07T21:14:55.013Z,137.50
2018-03-07T21:17:22.542Z,145.35
2018-03-07T21:19:50.948Z,130.87
2018-03-07T21:22:18.485Z,141.63
2018-03-07T21:24:46.814Z,158.48
2018-03-07T21:27:14.364Z,155.65
2018-03-07T21:29:41.886Z,134.18
2018-03-07T21:32:10.313Z,135.65
2018-03-07T21:34:37.842Z,143.65
2018-03-07T21:37:05.381Z,134.60
2018-03-07T21:39:33.702Z,132.67
2018-03-07T21:42:01.233Z,132.03
2018-03-07T21:44:29.548Z,147.20
2018-03-07T21:46:57.091Z,145.93
2018-03-07T21:49:24.660Z,133.53
2018-03-07T21:51:52.212Z,135.77
2018-03-07T21:54:19.743Z,135.87
2018-03-07T21:56:47.276Z,126.10
2018-03-07T21:59:14.817Z,142.47
2018-03-07T22:01:42.373Z,137.13
2018-03-07T22:04:09.922Z,141.27
2018-03-07T22:06:37.502Z,134.47
2018-03-07T22:09:05.077Z,134.60
2018-03-07T22:11:32.638Z,132.77
2018-03-07T22:14:00.173Z,124.93
2018-03-07T22:16:28.201Z,125.00
2018-03-07T22:18:56.718Z,117.73
2018-03-07T22:21:24.252Z,120.40
2018-03-07T22:23:52.589Z,113.03
2018-03-07T22:26:20.213Z,125.00
2018-03-07T22:28:47.756Z,124.10
2018-03-07T22:31:16.073Z,112.77
2018-03-07T22:33:43.649Z,115.27
2018-03-07T22:36:11.194Z,103.20
2018-03-07T22:38:38.737Z,114.30
2018-03-07T22:41:06.319Z,110.43
2018-03-07T22:43:33.839Z,119.23
2018-03-07T22:46:01.380Z,105.87
2018-03-07T22:48:29.696Z,106.90
2018-03-07T22:50:57.289Z,111.88
2018-03-07T22:53:24.831Z,106.87
2018-03-07T22:55:52.382Z,108.33
2018-03-07T22:58:19.906Z,120.53
2018-03-07T23:00:49.036Z,109.47
2018-03-07T23:03:16.576Z,109.60
2018-03-07T23:05:44.113Z,99.00
2018-03-07T23:08:11.650Z,107.63
2018-03-07T23:10:39.205Z,104.47
2018-03-07T23:13:06.729Z,123.87
2018-03-07T23:15:34.290Z,106.90
2018-03-07T23:18:01.833Z,102.33
2018-03-07T23:20:30.116Z,99.70
2018-03-07T23:22:57.693Z,100.10
2018-03-07T23:25:25.260Z,98.13
2018-03-07T23:27:52.783Z,86.53
2018-03-07T23:30:21.102Z,87.43
2018-03-07T23:32:48.628Z,72.93
2018-03-07T23:35:17.041Z,75.37
2018-03-07T23:37:44.582Z,75.30
2018-03-07T23:40:12.113Z,71.12
2018-03-07T23:42:40.494Z,78.25
2018-03-07T23:45:08.124Z,71.93
2018-03-07T23:47:35.672Z,72.73
2018-03-07T23:50:03.228Z,64.93
2018-03-07T23:52:30.789Z,75.03
2018-03-07T23:54:58.337Z,69.00
2018-03-07T23:57:25.918Z,68.15
2018-03-07T23:59:53.454Z,66.80
